Time;durP1;ratioP1;P1;durP2;ratioP2;P2;SDS_P1;SDS_P2;PMS_P1;PMS_P2;Temp;Humidity;BMP_temperature;BMP_pressure;BME280_temperature;BME280_humidity;BME280_pressure;Samples;Min_cycle;Max_cycle;Signal;HPM_P1;HPM_P2
2023/10/12 00:49:48;;;;;;;;;;;23.40;73.00;;;;;;5066687;28;42795;-79
2023/10/12 00:53:15;;;;;;;;;;;23.30;71.60;;;;;;5064877;28;43081;-80
2023/10/12 00:55:36;;;;;;;;;;;23.30;74.30;;;;;;5005731;28;43390;-78
2023/10/12 00:58:05;;;;;;;;;;;23.20;71.90;;;;;;5048363;28;44629;-78
2023/10/12 01:03:58;;;;;;;;;;;23.30;72.50;;;;;;5063427;28;43053;-81
2023/10/12 01:08:52;;;;;;;;;;;23.10;74.50;;;;;;5065057;28;43199;-78
2023/10/12 01:11:33;;;;;;;;;;;23.00;74.50;;;;;;5048932;28;42922;-80
2023/10/12 01:19:07;;;;;;;;;;;23.10;72.80;;;;;;5076158;27;43999;-79
2023/10/12 01:21:36;;;;;;;;;;;23.90;73.80;;;;;;5056825;28;43371;-79
2023/10/12 01:24:11;;;;;;;;;;;23.00;74.60;;;;;;5049528;28;44600;-78
2023/10/12 01:26:53;;;;;;;;;;;23.20;72.90;;;;;;5090283;28;42972;-80
2023/10/12 01:29:25;;;;;;;;;;;23.00;75.30;;;;;;5090542;28;43717;-78
2023/10/12 01:32:38;;;;;;;;;;;22.90;73.40;;;;;;5091929;27;43091;-78
2023/10/12 02:01:42;;;;;;;;;;;23.10;74.10;;;;;;5125283;27;43520;-79
2023/10/12 02:04:07;;;;;;;;;;;23.00;74.40;;;;;;5117532;27;42878;-79
2023/10/12 02:06:38;;;;;;;;;;;23.00;75.10;;;;;;5112813;27;42972;-78
2023/10/12 02:09:20;;;;;;;;;;;23.00;72.90;;;;;;5111577;27;42964;-78
2023/10/12 02:11:53;;;;;;;;;;;23.00;72.90;;;;;;5091092;27;42735;-79
2023/10/12 02:17:25;;;;;;;;;;;23.00;72.70;;;;;;5109601;27;43020;-79
2023/10/12 02:19:52;;;;;;;;;;;23.10;72.90;;;;;;5109024;27;42748;-77
2023/10/12 02:32:48;;;;;;;;;;;23.00;74.30;;;;;;5085787;28;43699;-78
2023/10/12 02:35:25;;;;;;;;;;;22.60;74.60;;;;;;5087001;28;43070;-81
2023/10/12 02:37:50;;;;;;;;;;;23.00;74.50;;;;;;5227464;22;42887;-79
2023/10/12 02:40:16;;;;;;;;;;;23.00;75.20;;;;;;5067187;28;43604;-81
2023/10/12 02:42:44;;;;;;;;;;;23.10;74.80;;;;;;5067841;28;42994;-78
2023/10/12 02:47:40;;;;;;;;;;;23.00;74.90;;;;;;5068916;28;42912;-79
2023/10/12 02:52:33;;;;;;;;;;;23.00;74.70;;;;;;5068659;28;42840;-80
2023/10/12 02:58:17;;;;;;;;;;;23.00;73.20;;;;;;5069185;28;42944;-80
2023/10/12 03:00:56;;;;;;;;;;;22.60;73.70;;;;;;5065291;28;43527;-81
2023/10/12 03:03:36;;;;;;;;;;;22.90;74.00;;;;;;5068431;28;43132;-81
2023/10/12 03:06:07;;;;;;;;;;;22.70;75.50;;;;;;5060585;28;42797;-77
2023/10/12 03:08:46;;;;;;;;;;;22.90;75.50;;;;;;5048277;28;43086;-78
2023/10/12 03:11:19;;;;;;;;;;;22.70;75.50;;;;;;5066283;28;43685;-78
2023/10/12 03:13:56;;;;;;;;;;;22.70;75.20;;;;;;5068120;28;43006;-78
2023/10/12 03:16:22;;;;;;;;;;;22.90;75.20;;;;;;5066399;28;44710;-78
2023/10/12 03:18:57;;;;;;;;;;;23.00;75.60;;;;;;5068435;28;42941;-79
2023/10/12 03:21:24;;;;;;;;;;;22.90;75.00;;;;;;5068106;28;43816;-78
2023/10/12 03:23:49;;;;;;;;;;;22.80;74.90;;;;;;5066392;28;42961;-78
2023/10/12 03:26:27;;;;;;;;;;;22.80;74.90;;;;;;5067976;28;43011;-78
2023/10/12 03:31:56;;;;;;;;;;;22.90;73.10;;;;;;5044996;28;43412;-78
2023/10/12 03:37:03;;;;;;;;;;;22.80;75.60;;;;;;5060785;28;43431;-78
2023/10/12 03:39:31;;;;;;;;;;;22.80;75.50;;;;;;5068513;28;43007;-79
2023/10/12 03:52:20;;;;;;;;;;;22.60;75.10;;;;;;5060883;28;43384;-78
2023/10/12 03:55:16;;;;;;;;;;;22.70;75.30;;;;;;5066481;28;43127;-78
2023/10/12 04:00:25;;;;;;;;;;;22.50;72.40;;;;;;5066921;28;42866;-78
2023/10/12 04:13:09;;;;;;;;;;;22.70;75.10;;;;;;5050599;28;42977;-79
2023/10/12 04:16:09;;;;;;;;;;;22.70;75.00;;;;;;5066323;28;42890;-79
2023/10/12 04:18:27;;;;;;;;;;;22.80;75.20;;;;;;5066697;28;43672;-78
2023/10/12 04:20:57;;;;;;;;;;;22.90;74.80;;;;;;5066475;28;42995;-78
2023/10/12 04:23:45;;;;;;;;;;;22.00;72.30;;;;;;5066585;28;43636;-78
2023/10/12 04:28:39;;;;;;;;;;;22.70;73.60;;;;;;5060908;28;43061;-80
2023/10/12 04:36:44;;;;;;;;;;;22.70;73.10;;;;;;5045980;28;43006;-80
2023/10/12 04:39:16;;;;;;;;;;;22.90;75.60;;;;;;5049430;28;42830;-78
2023/10/12 04:41:52;;;;;;;;;;;22.70;75.50;;;;;;5061328;28;42826;-77
2023/10/12 04:46:49;;;;;;;;;;;22.50;73.70;;;;;;5050632;28;43025;-79
2023/10/12 04:51:51;;;;;;;;;;;22.60;73.60;;;;;;5066323;28;43082;-78
2023/10/12 04:54:26;;;;;;;;;;;21.90;74.70;;;;;;5066771;28;43358;-79
2023/10/12 04:57:13;;;;;;;;;;;22.60;73.90;;;;;;5066784;28;42852;-78
2023/10/12 04:59:51;;;;;;;;;;;22.60;72.90;;;;;;5066698;28;43833;-78
2023/10/12 05:02:38;;;;;;;;;;;22.60;74.50;;;;;;5067048;28;42808;-79
2023/10/12 05:05:54;;;;;;;;;;;22.70;72.70;;;;;;5059366;28;44331;-79
2023/10/12 05:08:40;;;;;;;;;;;22.70;73.00;;;;;;5041451;28;42963;-78
2023/10/12 05:11:15;;;;;;;;;;;22.60;73.10;;;;;;5042205;28;44369;-80
2023/10/12 05:16:43;;;;;;;;;;;22.50;73.00;;;;;;5041854;28;43133;-80
2023/10/12 05:19:17;;;;;;;;;;;22.50;75.00;;;;;;5040681;28;43061;-81
2023/10/12 05:21:58;;;;;;;;;;;22.60;73.30;;;;;;5042746;28;42927;-78
2023/10/12 05:24:23;;;;;;;;;;;22.40;73.10;;;;;;5040118;28;43145;-79
2023/10/12 05:30:05;;;;;;;;;;;22.60;75.00;;;;;;4677330;22;44638;-78
2023/10/12 05:32:55;;;;;;;;;;;22.60;73.10;;;;;;5041057;28;43438;-77
2023/10/12 05:35:46;;;;;;;;;;;22.50;75.00;;;;;;5061229;28;42925;-78
2023/10/12 05:38:07;;;;;;;;;;;22.70;75.40;;;;;;5060762;28;44212;-78
2023/10/12 05:58:11;;;;;;;;;;;22.70;73.30;;;;;;5067485;28;43133;-80
2023/10/12 06:00:52;;;;;;;;;;;22.40;75.00;;;;;;5066658;28;42965;-80
2023/10/12 06:03:22;;;;;;;;;;;22.60;73.40;;;;;;5057697;28;43060;-79
2023/10/12 06:05:48;;;;;;;;;;;22.30;73.30;;;;;;5058360;28;43581;-80
2023/10/12 06:08:18;;;;;;;;;;;22.50;75.90;;;;;;5040986;28;42958;-78
2023/10/12 06:10:45;;;;;;;;;;;22.40;75.80;;;;;;5059235;28;42998;-80
2023/10/12 06:16:17;;;;;;;;;;;22.70;73.70;;;;;;5061943;28;42923;-79
2023/10/12 06:18:44;;;;;;;;;;;22.60;73.20;;;;;;5056751;28;43126;-80
2023/10/12 06:21:17;;;;;;;;;;;22.70;76.20;;;;;;5059614;28;43773;-78
2023/10/12 06:23:44;;;;;;;;;;;22.40;73.60;;;;;;5064140;28;42945;-79
2023/10/12 06:26:28;;;;;;;;;;;22.60;76.20;;;;;;5032683;28;44490;-79
2023/10/12 06:31:59;;;;;;;;;;;22.60;74.00;;;;;;5062534;28;42977;-79
2023/10/12 06:34:35;;;;;;;;;;;22.60;75.80;;;;;;5062687;28;43274;-79
2023/10/12 06:46:06;;;;;;;;;;;22.50;74.60;;;;;;5065157;28;42955;-80
2023/10/12 06:51:20;;;;;;;;;;;22.50;76.90;;;;;;5065232;28;43929;-80
2023/10/12 07:05:28;;;;;;;;;;;22.40;76.20;;;;;;5066032;28;42824;-80
2023/10/12 07:07:53;;;;;;;;;;;22.30;78.00;;;;;;5056693;28;43182;-80
2023/10/12 07:16:31;;;;;;;;;;;22.60;75.90;;;;;;5065975;28;42740;-80
2023/10/12 07:22:09;;;;;;;;;;;22.40;76.70;;;;;;5056288;28;43191;-79
2023/10/12 07:24:38;;;;;;;;;;;22.30;78.50;;;;;;5035630;28;43045;-80
2023/10/12 07:27:18;;;;;;;;;;;22.40;78.20;;;;;;5057705;28;42990;-80
2023/10/12 07:30:00;;;;;;;;;;;22.30;78.90;;;;;;5055490;28;43249;-80
2023/10/12 07:34:56;;;;;;;;;;;22.30;79.40;;;;;;5056613;28;43000;-80
2023/10/12 07:37:59;;;;;;;;;;;22.50;79.30;;;;;;5028489;28;62914;-79
2023/10/12 07:40:25;;;;;;;;;;;22.50;79.10;;;;;;5034699;28;42954;-80
2023/10/12 07:42:51;;;;;;;;;;;22.60;78.50;;;;;;5008008;28;45225;-80
2023/10/12 07:45:28;;;;;;;;;;;22.70;78.60;;;;;;5025113;28;42993;-80
2023/10/12 07:47:58;;;;;;;;;;;22.90;76.90;;;;;;5034160;28;43564;-85
2023/10/12 07:50:28;;;;;;;;;;;22.70;76.80;;;;;;5033658;28;42944;-80
2023/10/12 07:53:06;;;;;;;;;;;22.70;77.00;;;;;;5032029;28;43759;-80
2023/10/12 07:55:41;;;;;;;;;;;22.70;78.90;;;;;;5023414;28;43110;-79
2023/10/12 07:58:12;;;;;;;;;;;22.80;79.50;;;;;;5025639;28;42982;-80
2023/10/12 08:00:41;;;;;;;;;;;22.80;79.60;;;;;;5025518;28;42998;-80
2023/10/12 08:03:18;;;;;;;;;;;22.70;79.60;;;;;;5036444;28;43034;-79
2023/10/12 08:08:51;;;;;;;;;;;22.80;77.40;;;;;;5047535;28;43271;-79
2023/10/12 08:11:27;;;;;;;;;;;23.00;79.70;;;;;;5057053;28;42958;-79
2023/10/12 08:13:59;;;;;;;;;;;22.90;78.10;;;;;;5057051;28;43376;-80
2023/10/12 08:16:28;;;;;;;;;;;23.50;80.10;;;;;;5040415;28;42797;-81
2023/10/12 08:21:38;;;;;;;;;;;22.80;79.90;;;;;;5060885;28;43127;-81
2023/10/12 08:24:45;;;;;;;;;;;22.90;79.20;;;;;;5044593;28;45695;-80
2023/10/12 08:27:27;;;;;;;;;;;22.90;76.30;;;;;;5023835;28;43505;-80
2023/10/12 08:32:34;;;;;;;;;;;22.90;78.40;;;;;;5024698;28;43035;-86
2023/10/12 08:47:51;;;;;;;;;;;23.30;77.40;;;;;;5379522;22;42826;-82
2023/10/12 08:53:36;;;;;;;;;;;23.20;78.20;;;;;;5099518;27;42965;-87
2023/10/12 08:55:52;;;;;;;;;;;23.10;76.00;;;;;;5095735;27;42937;-86
2023/10/12 08:58:32;;;;;;;;;;;23.10;77.90;;;;;;5103482;27;43038;-87
2023/10/12 09:05:54;;;;;;;;;;;23.20;78.00;;;;;;5118968;27;43592;-86
2023/10/12 09:11:13;;;;;;;;;;;23.10;77.50;;;;;;5119424;27;43066;-84
2023/10/12 09:13:45;;;;;;;;;;;23.10;75.50;;;;;;5115195;27;42975;-85
2023/10/12 09:16:11;;;;;;;;;;;23.20;78.00;;;;;;5100577;27;42800;-86
2023/10/12 09:18:47;;;;;;;;;;;23.20;77.90;;;;;;5095703;27;43088;-84
2023/10/12 09:23:50;;;;;;;;;;;23.30;77.80;;;;;;5099539;27;42920;-80
2023/10/12 09:26:34;;;;;;;;;;;23.20;77.90;;;;;;5103284;27;43671;-82
2023/10/12 09:36:55;;;;;;;;;;;23.10;78.10;;;;;;5107726;27;43361;-83
2023/10/12 09:39:55;;;;;;;;;;;23.20;75.70;;;;;;5102812;27;43033;-82
2023/10/12 09:42:26;;;;;;;;;;;22.10;77.00;;;;;;5109140;27;42986;-81
2023/10/12 09:45:01;;;;;;;;;;;23.20;77.60;;;;;;5130699;27;42924;-82
2023/10/12 09:47:35;;;;;;;;;;;23.20;78.10;;;;;;5102661;27;43453;-81
2023/10/12 09:50:13;;;;;;;;;;;23.20;78.30;;;;;;5102712;27;43013;-82
2023/10/12 09:52:46;;;;;;;;;;;23.20;77.60;;;;;;5079653;27;43020;-81
2023/10/12 09:55:23;;;;;;;;;;;23.30;77.50;;;;;;5097647;27;43515;-82
2023/10/12 09:57:51;;;;;;;;;;;23.10;77.90;;;;;;5097748;27;44482;-82
2023/10/12 10:01:07;;;;;;;;;;;23.30;78.00;;;;;;5105096;27;42759;-82
2023/10/12 10:03:04;;;;;;;;;;;23.40;77.60;;;;;;5109805;27;44056;-82
2023/10/12 10:08:46;;;;;;;;;;;23.30;77.80;;;;;;5044034;28;43220;-81
2023/10/12 10:11:12;;;;;;;;;;;23.20;77.70;;;;;;5036643;28;43089;-83
2023/10/12 10:13:41;;;;;;;;;;;23.20;77.70;;;;;;5238147;22;42923;-81
2023/10/12 10:16:18;;;;;;;;;;;23.30;76.50;;;;;;5109880;27;43019;-81
2023/10/12 10:18:45;;;;;;;;;;;23.30;78.80;;;;;;5109000;27;42881;-81
2023/10/12 10:21:12;;;;;;;;;;;23.30;78.80;;;;;;5109254;27;42941;-82
2023/10/12 10:23:48;;;;;;;;;;;22.90;78.40;;;;;;5109424;27;43532;-81
2023/10/12 10:26:17;;;;;;;;;;;23.20;76.20;;;;;;5109595;27;43070;-81
2023/10/12 10:28:54;;;;;;;;;;;23.20;78.80;;;;;;5109224;27;43409;-81
2023/10/12 10:31:26;;;;;;;;;;;23.20;78.10;;;;;;5109564;27;42932;-82
2023/10/12 10:33:57;;;;;;;;;;;23.30;76.40;;;;;;5110156;27;42938;-81
2023/10/12 10:36:26;;;;;;;;;;;23.20;78.80;;;;;;5109137;27;43063;-80
2023/10/12 10:41:46;;;;;;;;;;;23.10;79.10;;;;;;5107918;27;43067;-81
2023/10/12 10:44:21;;;;;;;;;;;23.20;78.60;;;;;;5109672;27;42921;-81
2023/10/12 10:46:48;;;;;;;;;;;23.70;77.50;;;;;;5109032;27;42968;-80
2023/10/12 10:49:15;;;;;;;;;;;23.20;79.70;;;;;;5109196;27;43663;-80
2023/10/12 10:52:03;;;;;;;;;;;23.20;79.60;;;;;;5091141;27;43002;-81
2023/10/12 10:54:29;;;;;;;;;;;23.30;77.00;;;;;;5109071;27;43561;-80
2023/10/12 10:56:55;;;;;;;;;;;23.30;78.90;;;;;;5108804;27;42977;-80
2023/10/12 10:59:20;;;;;;;;;;;23.30;79.00;;;;;;5109527;27;43005;-80
2023/10/12 11:01:48;;;;;;;;;;;23.20;79.70;;;;;;5108623;27;42968;-80
2023/10/12 11:07:03;;;;;;;;;;;23.20;77.80;;;;;;5108410;27;42792;-80
2023/10/12 11:09:31;;;;;;;;;;;23.20;80.10;;;;;;5107738;27;44260;-81
2023/10/12 11:12:00;;;;;;;;;;;23.20;78.90;;;;;;5107609;27;42891;-80
2023/10/12 11:14:31;;;;;;;;;;;23.30;78.50;;;;;;5107699;27;42940;-81
2023/10/12 11:17:00;;;;;;;;;;;23.40;80.10;;;;;;5091098;27;43028;-80
2023/10/12 11:19:27;;;;;;;;;;;23.40;78.20;;;;;;5108389;27;42824;-80
2023/10/12 11:21:52;;;;;;;;;;;23.30;79.80;;;;;;5089280;27;42739;-80
2023/10/12 11:24:19;;;;;;;;;;;23.30;80.10;;;;;;5109453;27;42888;-81
2023/10/12 11:26:51;;;;;;;;;;;23.40;80.30;;;;;;5112028;27;42873;-80
2023/10/12 11:29:37;;;;;;;;;;;23.20;78.30;;;;;;5114371;27;42757;-81
2023/10/12 11:32:09;;;;;;;;;;;23.40;80.50;;;;;;5106801;27;42932;-80
2023/10/12 11:34:35;;;;;;;;;;;23.40;78.30;;;;;;5107467;27;42903;-79
2023/10/12 11:37:01;;;;;;;;;;;23.40;81.10;;;;;;5107719;27;42762;-80
2023/10/12 11:39:28;;;;;;;;;;;23.40;80.50;;;;;;5107483;27;43496;-80
2023/10/12 11:42:07;;;;;;;;;;;24.00;80.90;;;;;;5107863;27;42838;-80
2023/10/12 11:44:42;;;;;;;;;;;23.40;78.40;;;;;;5107868;27;42821;-80
2023/10/12 11:47:13;;;;;;;;;;;23.40;78.80;;;;;;5107580;27;43003;-80
2023/10/12 11:49:55;;;;;;;;;;;23.50;79.20;;;;;;5088358;27;43211;-80
2023/10/12 11:52:37;;;;;;;;;;;23.20;78.60;;;;;;5088699;27;43032;-80
2023/10/12 11:55:24;;;;;;;;;;;23.40;81.10;;;;;;5081227;27;44555;-81
2023/10/12 11:57:58;;;;;;;;;;;23.40;80.60;;;;;;5085965;28;42998;-81
2023/10/12 12:00:29;;;;;;;;;;;23.20;79.30;;;;;;5085058;28;42993;-81
2023/10/12 12:03:02;;;;;;;;;;;23.50;78.20;;;;;;5083705;27;43083;-81
2023/10/12 12:05:45;;;;;;;;;;;23.40;80.20;;;;;;5095907;27;43959;-81
2023/10/12 12:08:32;;;;;;;;;;;23.50;80.20;;;;;;5104469;27;43018;-81
2023/10/12 12:11:04;;;;;;;;;;;23.40;79.90;;;;;;5255994;22;43082;-81
2023/10/12 12:13:35;;;;;;;;;;;23.50;77.50;;;;;;5101016;27;42894;-82
2023/10/12 12:26:52;;;;;;;;;;;;;;;;;;6280801;22;43246;-80
2023/10/12 12:29:27;;;;;;;;;;;23.60;78.20;;;;;;5084727;28;44683;-81
2023/10/12 12:31:54;;;;;;;;;;;23.40;80.60;;;;;;5085763;28;43874;-81
2023/10/12 12:34:38;;;;;;;;;;;23.40;80.50;;;;;;5085932;28;42891;-81
2023/10/12 12:37:05;;;;;;;;;;;23.40;80.30;;;;;;5086703;28;42976;-81
2023/10/12 12:39:33;;;;;;;;;;;23.50;80.10;;;;;;5086686;28;43019;-81
2023/10/12 12:44:26;;;;;;;;;;;23.40;79.90;;;;;;5080706;28;44322;-81
2023/10/12 14:09:27;;;;;;;;;;;23.60;79.70;;;;;;5101424;27;43405;-82
2023/10/12 14:11:54;;;;;;;;;;;23.60;80.10;;;;;;5081517;28;42933;-81
2023/10/12 14:14:19;;;;;;;;;;;23.00;80.40;;;;;;5090767;28;43539;-81
2023/10/12 14:16:45;;;;;;;;;;;23.80;81.30;;;;;;5088883;28;43088;-81
2023/10/12 14:19:16;;;;;;;;;;;23.50;80.40;;;;;;5070168;28;45373;-82
2023/10/12 14:21:42;;;;;;;;;;;23.50;80.60;;;;;;5088889;28;42838;-82
2023/10/12 14:24:07;;;;;;;;;;;23.40;81.00;;;;;;5088411;28;43477;-82
2023/10/12 14:26:35;;;;;;;;;;;23.50;80.60;;;;;;5086895;28;43078;-82
2023/10/12 14:29:05;;;;;;;;;;;23.60;80.70;;;;;;5081815;28;43302;-81
2023/10/12 14:31:31;;;;;;;;;;;23.50;81.00;;;;;;5086550;28;42882;-80
2023/10/12 14:33:59;;;;;;;;;;;23.40;81.20;;;;;;5085686;28;43657;-81
2023/10/12 14:36:26;;;;;;;;;;;23.50;80.50;;;;;;5087393;28;43267;-80
2023/10/12 14:38:54;;;;;;;;;;;23.80;81.20;;;;;;5087501;28;43978;-81
2023/10/12 14:41:24;;;;;;;;;;;23.40;80.80;;;;;;5087648;28;42920;-82
2023/10/12 14:43:50;;;;;;;;;;;23.60;78.70;;;;;;5084937;28;43362;-81
2023/10/12 14:46:19;;;;;;;;;;;23.60;81.00;;;;;;5086914;28;43085;-81
2023/10/12 14:48:49;;;;;;;;;;;23.50;80.20;;;;;;5087285;28;43074;-80
2023/10/12 14:51:17;;;;;;;;;;;23.60;80.40;;;;;;5087586;28;42907;-83
2023/10/12 14:53:50;;;;;;;;;;;23.60;80.20;;;;;;5088206;28;43394;-80
2023/10/12 14:56:23;;;;;;;;;;;23.60;80.20;;;;;;5087815;28;42842;-83
2023/10/12 14:58:50;;;;;;;;;;;23.80;81.00;;;;;;5086861;28;43047;-81
2023/10/12 15:01:17;;;;;;;;;;;23.60;81.20;;;;;;5064184;28;43026;-79
2023/10/12 15:03:45;;;;;;;;;;;23.60;80.60;;;;;;5086170;28;42903;-80
2023/10/12 15:06:12;;;;;;;;;;;23.60;81.10;;;;;;5086704;27;42910;-81
2023/10/12 16:00:32;;;;;;;;;;;23.90;83.80;;;;;;5968798;22;43685;-80
2023/10/12 16:03:13;;;;;;;;;;;23.80;83.90;;;;;;5118000;22;43209;-80
2023/10/12 16:05:41;;;;;;;;;;;23.90;82.50;;;;;;5105361;27;42893;-80
2023/10/12 16:08:15;;;;;;;;;;;23.60;84.50;;;;;;5104382;27;42945;-81
2023/10/12 16:10:46;;;;;;;;;;;23.70;84.20;;;;;;5106028;27;42837;-79
2023/10/12 16:13:14;;;;;;;;;;;23.90;84.70;;;;;;5106057;27;42918;-80
2023/10/12 16:15:40;;;;;;;;;;;22.90;84.30;;;;;;5105228;27;43791;-82
2023/10/12 16:18:11;;;;;;;;;;;23.70;85.00;;;;;;5105836;27;43000;-79
2023/10/12 16:31:58;;;;;;;;;;;23.80;81.90;;;;;;5090891;27;43545;-82
2023/10/12 16:48:39;;;;;;;;;;;23.80;82.50;;;;;;6013623;22;43842;-83
2023/10/12 16:51:10;;;;;;;;;;;23.90;83.90;;;;;;5091402;28;42865;-82
2023/10/12 16:53:37;;;;;;;;;;;23.50;81.90;;;;;;5079391;28;43014;-83
2023/10/12 16:56:10;;;;;;;;;;;23.70;84.10;;;;;;5074342;28;43069;-83
2023/10/12 16:58:37;;;;;;;;;;;23.80;83.90;;;;;;5490350;22;43349;-83
2023/10/12 17:01:03;;;;;;;;;;;23.80;82.10;;;;;;5103827;27;43970;-83
2023/10/12 17:03:31;;;;;;;;;;;23.90;84.00;;;;;;5106010;27;43465;-83
2023/10/12 17:06:06;;;;;;;;;;;23.60;82.70;;;;;;5101784;27;42994;-83
2023/10/12 17:18:59;;;;;;;;;;;24.00;84.00;;;;;;5469403;22;44207;-82
2023/10/12 17:21:25;;;;;;;;;;;23.90;82.50;;;;;;5103825;27;43139;-82
2023/10/12 17:23:50;;;;;;;;;;;24.00;84.50;;;;;;5104242;27;43716;-82
2023/10/12 17:26:16;;;;;;;;;;;23.50;84.70;;;;;;5103869;27;43235;-83
2023/10/12 17:28:42;;;;;;;;;;;23.90;85.10;;;;;;5105362;27;43001;-81
2023/10/12 17:31:08;;;;;;;;;;;24.10;85.10;;;;;;5109288;27;43178;-83
2023/10/12 17:46:31;;;;;;;;;;;24.20;84.10;;;;;;5154036;22;43084;-82
2023/10/12 17:48:57;;;;;;;;;;;24.00;84.80;;;;;;5066077;28;43072;-82
2023/10/12 17:51:23;;;;;;;;;;;24.30;85.40;;;;;;5064006;28;43282;-82
2023/10/12 17:53:49;;;;;;;;;;;24.10;85.40;;;;;;5064828;28;44335;-82
2023/10/12 17:56:15;;;;;;;;;;;24.20;85.50;;;;;;5065027;28;42949;-82
2023/10/12 17:58:41;;;;;;;;;;;24.20;85.50;;;;;;5065102;28;43033;-83
2023/10/12 18:01:07;;;;;;;;;;;24.20;85.80;;;;;;5066353;28;43109;-82
2023/10/12 18:03:32;;;;;;;;;;;24.20;85.80;;;;;;5066329;28;43235;-81
2023/10/12 18:05:58;;;;;;;;;;;24.20;85.90;;;;;;5066273;28;42966;-81
2023/10/12 18:08:25;;;;;;;;;;;24.20;85.90;;;;;;5066929;28;43682;-81
2023/10/12 18:10:51;;;;;;;;;;;24.30;86.20;;;;;;5066610;28;42903;-82
2023/10/12 18:13:16;;;;;;;;;;;24.10;86.20;;;;;;5064785;28;43002;-84
2023/10/12 18:15:42;;;;;;;;;;;24.30;86.60;;;;;;5066328;28;42963;-79
2023/10/12 18:18:08;;;;;;;;;;;24.30;86.60;;;;;;5065193;28;43400;-79
2023/10/12 18:20:36;;;;;;;;;;;24.30;86.60;;;;;;5065785;28;42970;-81
2023/10/12 18:23:05;;;;;;;;;;;24.20;84.90;;;;;;5066383;28;43025;-79
2023/10/12 18:25:40;;;;;;;;;;;24.20;86.20;;;;;;5065778;28;43040;-82
2023/10/12 18:28:06;;;;;;;;;;;24.30;84.50;;;;;;5065799;28;42946;-80
2023/10/12 18:30:32;;;;;;;;;;;24.10;86.20;;;;;;5056247;28;43062;-83
2023/10/12 18:32:59;;;;;;;;;;;24.10;86.20;;;;;;5048167;28;44637;-81
2023/10/12 18:35:25;;;;;;;;;;;24.30;86.40;;;;;;5066065;28;43004;-84
2023/10/12 18:37:50;;;;;;;;;;;24.30;86.40;;;;;;5066450;28;43690;-82
2023/10/12 18:40:17;;;;;;;;;;;23.90;86.00;;;;;;5066005;28;43010;-83
2023/10/12 18:42:44;;;;;;;;;;;24.30;86.40;;;;;;5065168;28;44724;-80
2023/10/12 18:45:09;;;;;;;;;;;24.20;86.30;;;;;;5065266;28;43209;-80
2023/10/12 18:47:35;;;;;;;;;;;24.30;86.50;;;;;;5064053;28;43068;-80
2023/10/12 18:50:01;;;;;;;;;;;24.30;86.40;;;;;;5066723;28;42901;-80
2023/10/12 18:52:27;;;;;;;;;;;24.30;86.40;;;;;;5063290;28;42966;-80
2023/10/12 18:54:55;;;;;;;;;;;24.30;86.70;;;;;;5065322;28;42923;-82
2023/10/12 18:57:21;;;;;;;;;;;24.20;86.70;;;;;;5065232;28;43086;-81
2023/10/12 18:59:47;;;;;;;;;;;24.20;86.90;;;;;;5046430;28;43047;-80
2023/10/12 19:12:36;;;;;;;;;;;24.30;86.40;;;;;;5119738;22;43191;-82
2023/10/12 19:15:04;;;;;;;;;;;24.20;86.90;;;;;;5086096;28;42937;-81
2023/10/12 19:17:31;;;;;;;;;;;24.20;87.20;;;;;;5088317;27;43062;-82
2023/10/12 19:19:56;;;;;;;;;;;24.10;87.40;;;;;;5095160;27;43073;-81
2023/10/12 19:30:12;;;;;;;;;;;24.30;87.60;;;;;;3389170;25;43516;-83
2023/10/12 19:32:38;;;;;;;;;;;24.00;87.50;;;;;;5081836;28;44480;-83
2023/10/12 19:35:08;;;;;;;;;;;24.10;87.80;;;;;;5088736;28;43101;-83
2023/10/12 19:37:34;;;;;;;;;;;24.10;88.00;;;;;;5092785;27;43056;-82
2023/10/12 19:39:59;;;;;;;;;;;24.00;88.00;;;;;;5093046;27;42996;-82
2023/10/12 19:45:00;;;;;;;;;;;24.20;87.40;;;;;;5982013;22;43126;-82
2023/10/12 19:47:26;;;;;;;;;;;24.20;87.70;;;;;;5074794;28;43220;-83
2023/10/12 19:49:52;;;;;;;;;;;24.10;87.90;;;;;;5055748;28;43157;-82
2023/10/12 19:52:18;;;;;;;;;;;24.00;88.10;;;;;;5071767;28;42973;-82
2023/10/12 19:54:43;;;;;;;;;;;24.00;88.00;;;;;;5075745;28;43025;-81
2023/10/12 19:57:10;;;;;;;;;;;24.10;88.20;;;;;;5074710;28;43027;-81
2023/10/12 20:02:21;;;;;;;;;;;24.00;88.00;;;;;;5732201;22;43627;-83
2023/10/12 20:04:47;;;;;;;;;;;24.10;85.80;;;;;;5094097;27;43019;-84
2023/10/12 20:07:12;;;;;;;;;;;24.00;88.40;;;;;;5097968;27;42886;-82
2023/10/12 20:17:24;;;;;;;;;;;24.10;87.50;;;;;;5551914;22;43210;-82
2023/10/12 20:19:52;;;;;;;;;;;24.10;88.00;;;;;;5076625;27;43018;-82
2023/10/12 20:22:18;;;;;;;;;;;23.90;88.30;;;;;;5077553;27;45026;-82
2023/10/12 20:24:43;;;;;;;;;;;23.90;88.60;;;;;;5074529;27;43030;-81
2023/10/12 20:27:09;;;;;;;;;;;23.90;88.60;;;;;;5096086;27;43074;-82
2023/10/12 20:29:34;;;;;;;;;;;23.90;88.70;;;;;;5075136;27;42906;-81
2023/10/12 20:32:00;;;;;;;;;;;23.80;88.80;;;;;;5096441;27;44012;-82
2023/10/12 20:34:26;;;;;;;;;;;23.70;88.90;;;;;;5088554;27;42944;-80
2023/10/12 20:36:51;;;;;;;;;;;22.50;88.00;;;;;;5091172;27;43004;-80
2023/10/12 20:39:23;;;;;;;;;;;23.80;88.80;;;;;;5094949;27;42799;-84
2023/10/12 20:41:49;;;;;;;;;;;23.50;89.00;;;;;;5082995;27;43003;-80
2023/10/12 20:44:18;;;;;;;;;;;24.00;89.20;;;;;;5094188;27;42931;-79
2023/10/12 20:46:44;;;;;;;;;;;23.90;88.30;;;;;;5094629;27;43113;-80
2023/10/12 20:49:10;;;;;;;;;;;24.00;88.50;;;;;;5092683;27;42912;-83
2023/10/12 20:51:35;;;;;;;;;;;23.90;88.60;;;;;;5095387;27;43075;-81
2023/10/12 20:54:11;;;;;;;;;;;23.90;88.30;;;;;;5095515;27;43121;-80
2023/10/12 20:56:37;;;;;;;;;;;24.00;87.80;;;;;;5088178;27;42969;-80
2023/10/12 20:59:25;;;;;;;;;;;23.70;88.60;;;;;;5092506;27;43075;-80
2023/10/12 21:02:00;;;;;;;;;;;24.00;86.30;;;;;;5079995;28;43043;-79
2023/10/12 21:04:30;;;;;;;;;;;26.00;88.80;;;;;;5095749;27;43025;-78
2023/10/12 21:06:57;;;;;;;;;;;24.10;89.00;;;;;;5099002;27;43680;-79
2023/10/12 21:09:22;;;;;;;;;;;24.00;88.80;;;;;;5101043;27;43152;-78
2023/10/12 21:11:49;;;;;;;;;;;23.90;88.20;;;;;;5099005;27;42986;-79
2023/10/12 21:14:24;;;;;;;;;;;24.00;88.30;;;;;;5101948;27;43060;-79
2023/10/12 21:16:52;;;;;;;;;;;24.20;88.90;;;;;;5101661;27;43760;-79
2023/10/12 21:19:21;;;;;;;;;;;23.90;88.20;;;;;;5092580;27;42718;-79
2023/10/12 21:21:54;;;;;;;;;;;23.90;88.40;;;;;;5099500;27;42871;-79
2023/10/12 21:24:20;;;;;;;;;;;23.90;86.00;;;;;;5095767;27;42921;-79
2023/10/12 21:26:46;;;;;;;;;;;23.90;88.90;;;;;;5089296;28;43376;-79
2023/10/12 21:29:17;;;;;;;;;;;23.70;88.80;;;;;;5091439;27;43192;-78
2023/10/12 21:31:44;;;;;;;;;;;23.90;88.90;;;;;;5080409;28;43104;-79
2023/10/12 21:44:31;;;;;;;;;;;23.90;87.70;;;;;;6009342;22;43104;-80
2023/10/12 21:47:02;;;;;;;;;;;23.80;88.30;;;;;;5088201;28;42966;-80
2023/10/12 21:49:28;;;;;;;;;;;23.90;88.20;;;;;;5089026;28;42768;-80
2023/10/12 21:51:54;;;;;;;;;;;23.70;88.60;;;;;;5088316;28;43312;-80
2023/10/12 21:54:20;;;;;;;;;;;23.80;88.30;;;;;;5089459;28;42862;-80
2023/10/12 21:56:45;;;;;;;;;;;23.70;88.40;;;;;;5089466;28;43460;-80
2023/10/12 21:59:14;;;;;;;;;;;23.80;88.40;;;;;;5087794;28;42977;-79
2023/10/12 22:01:49;;;;;;;;;;;23.70;85.90;;;;;;5088763;28;42977;-80
2023/10/12 22:04:15;;;;;;;;;;;23.80;86.40;;;;;;5089505;28;42941;-79
2023/10/12 22:06:41;;;;;;;;;;;23.80;88.50;;;;;;5089692;28;43774;-80
2023/10/12 22:09:12;;;;;;;;;;;23.80;88.50;;;;;;5089205;28;43008;-80
2023/10/12 22:11:44;;;;;;;;;;;23.80;88.30;;;;;;5088011;28;44108;-79
2023/10/12 22:16:41;;;;;;;;;;;23.70;86.50;;;;;;5102821;28;42318;-80
2023/10/12 22:19:10;;;;;;;;;;;23.90;88.10;;;;;;5105705;28;42852;-79
2023/10/12 22:21:37;;;;;;;;;;;23.70;88.40;;;;;;5096036;28;42924;-79
2023/10/12 22:24:06;;;;;;;;;;;23.70;88.10;;;;;;5072768;28;42972;-79
2023/10/12 22:26:36;;;;;;;;;;;23.60;86.20;;;;;;5088846;28;42957;-79
2023/10/12 22:29:08;;;;;;;;;;;23.90;88.30;;;;;;5088483;28;43577;-80
2023/10/12 22:31:34;;;;;;;;;;;23.80;88.10;;;;;;5087904;28;44568;-79
2023/10/12 22:34:02;;;;;;;;;;;23.70;88.60;;;;;;5088234;28;42909;-79
2023/10/12 22:36:28;;;;;;;;;;;23.70;88.70;;;;;;5087236;28;43005;-78
2023/10/12 22:38:54;;;;;;;;;;;23.80;88.50;;;;;;5088851;28;42929;-80
2023/10/12 22:41:20;;;;;;;;;;;23.80;88.50;;;;;;5088401;28;43036;-79
2023/10/12 22:43:46;;;;;;;;;;;23.70;88.00;;;;;;5088827;28;42969;-78
2023/10/12 22:46:15;;;;;;;;;;;23.80;88.60;;;;;;5088223;28;43695;-79
2023/10/12 22:48:41;;;;;;;;;;;23.70;86.20;;;;;;5089189;28;43084;-79
2023/10/12 22:51:06;;;;;;;;;;;23.70;88.60;;;;;;5087720;28;44662;-79
2023/10/12 22:53:32;;;;;;;;;;;23.80;88.30;;;;;;5087524;28;42959;-80
2023/10/12 22:55:58;;;;;;;;;;;23.80;88.30;;;;;;5087974;28;43555;-79
2023/10/12 22:58:24;;;;;;;;;;;23.80;88.20;;;;;;5089152;28;42893;-79
2023/10/12 23:00:50;;;;;;;;;;;23.60;88.60;;;;;;5087607;28;43438;-78
2023/10/12 23:03:15;;;;;;;;;;;23.80;88.30;;;;;;5087881;28;42855;-80
2023/10/12 23:05:41;;;;;;;;;;;23.60;88.70;;;;;;5087575;28;42862;-79